Česky Dansk Deutsch English Español Suomi Français Magyar Italiano Nederlands norsk Polski Português svenska Türkçe

 

Het Weer

Bangassou (Central African Republic)

12:00, 14 augustus 2016 (GMT)

NWNNE
WE
SWSSE
Home            
Bangassou Alindao Yalinga Bria Bambari Gemena Obo N'Dele Bangui Kisangani Bossembele Boende Birao Bossangoa Impfondo Sarh Mbandaka Am-Timan Berberati Bouar Ouesso Nyala Moundou

Om een weerknop op uw website of weblog te plaatsen, copieer onderstaande code en plak die in uw pagina. In het eerste vakje staat HTML-code, in het tweede vakje UBB-code.


Add to Google

Details

Wind speed:2 bf, 4 kn, 2.1 m/s, 4.6 miles/h, 7.4 km/h
Wind direction:Variable
Visibility:Greater than 10000 m, 10 km, 32800 ft, 6.2 miles
Clouds:Aufgelockert bewölkt at 2300 ft, 701 m
Ein wenig bewölkt at 2600 ft, 792 m
Temperature:32°C, 90°F
Gefühlte Temperatur:37°C, 99°F
Dew-point:23°C, 73°F
Atmospheric pressure:1011 hPa, 758.3 mmHg, 29.85 inHg, 0.998 atm
Relative humidity:59.1 %
METAR:FEFG 141200Z VRB04KT 9999 SCT023 FEW026TCU 32/23 Q1011 NOSIG

Snelkoppelingen

Actuele weersinformatie van de hele wereld. Voeg locaties toe met het plus (+) symbool. Deze snelkoppelingen kunnen worden toegevoegd aan Google.

Lid van de Technetium groep

website free tracking
StatCounter NetStat W3C Validator

17-07-2018 05:48:28
astro.technetium.be money.technetium.be phote.technetium.be tafeltennistafel.technetium.be www.ligfiets.net